Time;durP1;ratioP1;P1;durP2;ratioP2;P2;SDS_P1;SDS_P2;PMS_P1;PMS_P2;Temp;Humidity;BMP_temperature;BMP_pressure;BME280_temperature;BME280_humidity;BME280_pressure;Samples;Min_cycle;Max_cycle;Signal;HPM_P1;HPM_P2
2023/07/29 00:00:57;;;;;;;5.95;2.00;;;;;;;-142.57;77.36;115900.28;4986543;28;20027;-84
2023/07/29 00:03:23;;;;;;;5.13;2.20;;;;;;;-142.57;77.89;115900.28;5002053;28;20021;-85
2023/07/29 00:05:49;;;;;;;5.30;2.25;;;;;;;-142.57;78.36;115900.28;4998113;28;20034;-83
2023/07/29 00:08:14;;;;;;;5.88;2.63;;;;;;;-142.57;78.94;115900.28;5010628;28;20034;-85
2023/07/29 00:10:40;;;;;;;5.15;2.40;;;;;;;-142.57;79.42;115900.28;4998006;28;20062;-84
2023/07/29 00:13:09;;;;;;;8.10;2.45;;;;;;;-142.57;80.06;115900.28;4988690;28;20054;-85
2023/07/29 00:15:34;;;;;;;7.38;2.42;;;;;;;-142.57;81.62;115900.28;4982812;28;20042;-87
2023/07/29 00:18:00;;;;;;;5.00;2.28;;;;;;;-142.57;82.05;115900.28;4979568;28;20026;-84
2023/07/29 00:20:25;;;;;;;7.53;2.38;;;;;;;-142.57;81.71;115900.28;4961008;28;20126;-87
2023/07/29 00:22:53;;;;;;;4.70;2.35;;;;;;;-142.57;80.60;115900.28;4979003;28;20400;-84
2023/07/29 00:25:19;;;;;;;6.35;2.22;;;;;;;-142.57;79.66;115900.28;4977588;28;20035;-87
2023/07/29 00:27:45;;;;;;;4.55;2.25;;;;;;;-142.57;79.46;115900.28;4979001;28;20050;-86
2023/07/29 00:30:11;;;;;;;11.05;2.83;;;;;;;-142.57;79.62;115900.28;4978923;28;20031;-87
2023/07/29 00:32:37;;;;;;;5.60;2.47;;;;;;;-142.57;80.00;115900.28;4977983;28;20046;-84
2023/07/29 00:35:08;;;;;;;7.88;2.30;;;;;;;-142.57;80.32;115900.28;4960670;28;20038;-85
2023/07/29 00:37:34;;;;;;;5.97;2.00;;;;;;;-142.57;81.18;115900.28;4960375;28;20515;-87
2023/07/29 00:39:59;;;;;;;7.32;2.60;;;;;;;-142.57;80.49;115900.28;4960881;28;20062;-86
2023/07/29 00:42:25;;;;;;;6.43;2.38;;;;;;;-142.57;80.19;115900.28;4977740;28;20546;-85
2023/07/29 00:44:53;;;;;;;8.07;3.28;;;;;;;-142.57;79.72;115900.28;4977103;28;20035;-88
2023/07/29 00:47:20;;;;;;;7.03;3.15;;;;;;;-142.57;81.23;115900.28;4977731;28;20042;-85
2023/07/29 00:49:48;;;;;;;7.95;2.90;;;;;;;-142.57;82.51;115900.28;4960108;28;20062;-85
2023/07/29 00:52:13;;;;;;;7.75;3.58;;;;;;;-142.57;81.74;115900.28;4977352;28;20031;-86
2023/07/29 00:54:40;;;;;;;7.70;3.33;;;;;;;-142.57;81.92;115900.28;4977675;28;20031;-84
2023/07/29 00:57:08;;;;;;;12.35;3.30;;;;;;;-142.57;81.74;115900.28;4976748;28;20149;-88
2023/07/29 00:59:35;;;;;;;10.57;2.88;;;;;;;-142.57;82.13;115900.28;4959996;28;20133;-85
2023/07/29 01:02:02;;;;;;;9.45;3.47;;;;;;;-142.57;81.86;115900.28;4976844;28;20046;-86
2023/07/29 01:04:27;;;;;;;5.18;3.10;;;;;;;-142.57;83.19;115900.28;4959547;28;20042;-86
2023/07/29 01:07:08;;;;;;;8.18;3.17;;;;;;;-142.57;82.79;115900.28;4959570;28;20045;-86
2023/07/29 01:09:47;;;;;;;10.55;2.90;;;;;;;-142.57;83.55;115900.28;4960179;28;20045;-85
2023/07/29 01:12:24;;;;;;;5.60;2.67;;;;;;;-142.57;84.98;115900.28;4959273;28;20039;-84
2023/07/29 01:15:16;;;;;;;6.55;3.13;;;;;;;-142.57;84.97;115900.28;4976624;28;20035;-86
2023/07/29 01:18:05;;;;;;;5.85;2.35;;;;;;;-142.57;84.39;115900.28;4957898;28;20055;-85
2023/07/29 01:20:34;;;;;;;5.72;3.03;;;;;;;-142.57;83.98;115900.28;4960099;28;20042;-89
2023/07/29 01:22:59;;;;;;;7.97;3.20;;;;;;;-142.57;84.52;115900.28;4959185;28;20077;-85
2023/07/29 01:25:25;;;;;;;8.20;3.17;;;;;;;-142.57;84.78;115900.28;4943428;28;20494;-89
2023/07/29 01:27:53;;;;;;;8.18;5.03;;;;;;;-142.57;85.34;115900.28;4958739;28;20033;-86
2023/07/29 01:30:22;;;;;;;16.05;5.60;;;;;;;-142.57;86.38;115900.28;4959559;28;20341;-85
2023/07/29 01:32:54;;;;;;;11.82;5.60;;;;;;;-142.57;86.26;115900.28;4977481;28;20050;-86
2023/07/29 01:35:31;;;;;;;;;;;;;;;-142.57;85.65;115900.28;4977454;28;20029;-85
2023/07/29 01:38:43;;;;;;;13.77;5.60;;;;;;;-142.57;86.20;115900.28;4938975;28;19918;-86
2023/07/29 01:41:09;;;;;;;13.95;5.90;;;;;;;-142.57;86.65;115900.28;4937206;29;20402;-84
2023/07/29 01:43:42;;;;;;;11.82;6.40;;;;;;;-142.57;86.90;115900.28;4959279;28;20067;-85
2023/07/29 01:46:12;;;;;;;11.30;6.60;;;;;;;-142.57;87.06;115900.28;4958134;28;20038;-85
2023/07/29 01:48:38;;;;;;;11.68;6.18;;;;;;;-142.57;87.14;115900.28;4960544;28;20097;-85
2023/07/29 01:51:04;;;;;;;11.65;6.25;;;;;;;-142.57;87.18;115900.28;4983804;28;20035;-83
2023/07/29 01:53:30;;;;;;;10.20;6.88;;;;;;;-142.57;87.55;115900.28;4977311;28;20050;-84
2023/07/29 01:55:56;;;;;;;12.27;6.53;;;;;;;-142.57;86.94;115900.28;4943288;28;20042;-83
2023/07/29 01:58:22;;;;;;;12.25;7.70;;;;;;;-142.57;87.33;115900.28;4958034;28;20081;-86
2023/07/29 02:00:48;;;;;;;9.70;6.60;;;;;;;-142.57;86.87;115900.28;4957694;28;20038;-83
2023/07/29 02:03:13;;;;;;;9.27;6.50;;;;;;;-142.57;87.75;115900.28;4975609;28;20038;-84
2023/07/29 02:05:39;;;;;;;11.48;5.95;;;;;;;-142.57;88.82;115900.28;4975252;28;20440;-84
2023/07/29 02:08:05;;;;;;;9.05;6.05;;;;;;;-142.57;88.89;115900.28;4957975;28;20030;-86
2023/07/29 02:10:30;;;;;;;13.00;6.30;;;;;;;-142.57;88.55;115900.28;4974623;28;20374;-84
2023/07/29 02:12:56;;;;;;;11.93;6.22;;;;;;;-142.57;89.85;115900.28;4956925;28;20472;-85
2023/07/29 02:15:21;;;;;;;11.27;5.65;;;;;;;-142.57;92.25;115900.28;4957689;28;20078;-83
2023/07/29 02:17:47;;;;;;;11.13;5.63;;;;;;;-142.57;93.92;115900.28;4973595;28;20193;-86
2023/07/29 02:20:12;;;;;;;15.63;5.78;;;;;;;-142.57;94.28;115900.28;4957567;28;20035;-86
2023/07/29 02:22:38;;;;;;;9.18;5.47;;;;;;;-142.57;96.01;115900.28;4956947;28;20532;-87
2023/07/29 02:25:05;;;;;;;10.95;5.40;;;;;;;-142.57;96.63;115900.28;4957738;28;20022;-87
2023/07/29 02:27:30;;;;;;;9.10;5.07;;;;;;;-142.57;95.46;115900.28;4957656;28;20114;-86
2023/07/29 02:29:56;;;;;;;10.85;5.55;;;;;;;-142.57;94.98;115900.28;4975326;28;20122;-85
2023/07/29 02:32:21;;;;;;;12.05;5.55;;;;;;;-142.57;96.36;115900.28;4957177;28;20041;-86
2023/07/29 02:34:49;;;;;;;10.80;5.53;;;;;;;-142.57;96.96;115900.28;4957201;28;20042;-85
2023/07/29 02:37:15;;;;;;;9.95;5.32;;;;;;;-142.57;97.14;115900.28;4957461;28;20038;-84
2023/07/29 02:39:40;;;;;;;9.93;5.57;;;;;;;-142.57;96.96;115900.28;4959910;28;20035;-85
2023/07/29 02:42:06;;;;;;;12.73;6.43;;;;;;;-142.57;97.49;115900.28;4978689;28;20109;-88
2023/07/29 02:44:31;;;;;;;13.25;6.15;;;;;;;-142.57;98.00;115900.28;4979019;28;20035;-89
2023/07/29 02:46:57;;;;;;;14.13;6.50;;;;;;;-142.57;98.93;115900.28;4978893;28;20027;-87
2023/07/29 02:49:23;;;;;;;12.32;6.22;;;;;;;-142.57;99.27;115900.28;4979079;28;20071;-85
2023/07/29 02:51:49;;;;;;;10.32;5.55;;;;;;;-142.57;98.64;115900.28;4961160;28;20031;-84
2023/07/29 02:54:14;;;;;;;9.52;5.53;;;;;;;-142.57;100.00;115900.28;4960954;28;20030;-86
2023/07/29 02:56:40;;;;;;;12.88;6.18;;;;;;;-142.57;100.00;115900.28;4979057;28;20333;-85
2023/07/29 02:59:06;;;;;;;9.13;5.50;;;;;;;-142.57;100.00;115900.28;4961354;28;20452;-84
2023/07/29 03:01:32;;;;;;;12.38;4.97;;;;;;;-142.57;100.00;115900.28;4961193;28;20035;-82
2023/07/29 03:03:57;;;;;;;11.15;5.70;;;;;;;-142.57;100.00;115900.28;4960900;28;20131;-87
2023/07/29 03:06:23;;;;;;;12.25;5.43;;;;;;;-142.57;100.00;115900.28;4961319;28;20039;-88
2023/07/29 03:08:49;;;;;;;13.30;5.97;;;;;;;-142.57;100.00;115900.28;4978683;28;20069;-82
2023/07/29 03:11:15;;;;;;;13.55;5.30;;;;;;;-142.57;100.00;115900.28;4978954;28;20035;-89
2023/07/29 03:13:41;;;;;;;8.95;5.35;;;;;;;-142.57;100.00;115900.28;4978410;28;20034;-85
2023/07/29 03:16:09;;;;;;;12.40;5.25;;;;;;;-142.57;100.00;115900.28;4960462;28;20027;-84
2023/07/29 03:18:37;;;;;;;8.43;4.97;;;;;;;-142.57;100.00;115900.28;4963887;28;20101;-88
2023/07/29 03:21:02;;;;;;;8.77;4.75;;;;;;;-142.57;100.00;115900.28;4961120;28;20438;-87
2023/07/29 03:23:29;;;;;;;8.52;4.30;;;;;;;-142.57;100.00;115900.28;4963218;28;20027;-89
2023/07/29 03:25:59;;;;;;;9.50;4.28;;;;;;;-142.57;100.00;115900.28;4979976;28;20043;-83
2023/07/29 03:28:29;;;;;;;11.82;4.47;;;;;;;-142.57;100.00;115900.28;4979726;28;20151;-85
2023/07/29 03:31:01;;;;;;;9.18;4.90;;;;;;;-142.57;100.00;115900.28;4982689;28;20403;-88
2023/07/29 03:33:30;;;;;;;8.30;4.53;;;;;;;-142.57;100.00;115900.28;4947274;28;20534;-87
2023/07/29 03:35:56;;;;;;;8.73;4.40;;;;;;;-142.57;100.00;115900.28;4979566;28;20073;-85
2023/07/29 03:38:21;;;;;;;8.48;4.78;;;;;;;-142.57;100.00;115900.28;4978619;28;20066;-90
2023/07/29 03:40:47;;;;;;;13.75;4.93;;;;;;;-142.57;100.00;115900.28;4963396;28;20050;-87
2023/07/29 03:43:13;;;;;;;8.05;4.75;;;;;;;-142.57;100.00;115900.28;4980699;28;20039;-86
2023/07/29 03:45:40;;;;;;;12.77;4.70;;;;;;;-142.57;100.00;115900.28;4962210;28;20027;-88
2023/07/29 03:48:05;;;;;;;7.60;4.38;;;;;;;-142.57;100.00;115900.28;4961647;28;20043;-88
2023/07/29 03:50:34;;;;;;;10.43;5.00;;;;;;;-142.57;100.00;115900.28;4960996;28;20038;-85
2023/07/29 03:53:00;;;;;;;11.68;4.97;;;;;;;-142.57;100.00;115900.28;4978985;28;20042;-84
2023/07/29 03:55:26;;;;;;;8.52;4.15;;;;;;;-142.57;100.00;115900.28;4961640;28;20047;-85
2023/07/29 03:57:51;;;;;;;8.73;4.43;;;;;;;-142.57;100.00;115900.28;4978301;28;20039;-82
2023/07/29 04:00:17;;;;;;;10.05;3.88;;;;;;;-142.57;100.00;115900.28;4977685;28;20023;-85
2023/07/29 04:02:45;;;;;;;9.40;4.60;;;;;;;-142.57;100.00;115900.28;4978454;28;20042;-85
2023/07/29 04:05:11;;;;;;;9.30;4.40;;;;;;;-142.57;100.00;115900.28;4944247;28;20038;-87
2023/07/29 04:07:37;;;;;;;9.10;4.35;;;;;;;-142.57;100.00;115900.28;4960805;28;20039;-84
2023/07/29 04:10:03;;;;;;;9.57;4.00;;;;;;;-142.57;100.00;115900.28;4980868;28;20190;-84
2023/07/29 04:12:29;;;;;;;12.77;4.28;;;;;;;-142.57;100.00;115900.28;4968088;28;20043;-84
2023/07/29 04:14:54;;;;;;;7.45;3.72;;;;;;;-142.57;100.00;115900.28;4987117;28;20082;-81
2023/07/29 04:17:21;;;;;;;10.15;4.28;;;;;;;-142.57;100.00;115900.28;4980699;28;20054;-85
2023/07/29 04:19:46;;;;;;;9.20;3.90;;;;;;;-142.57;100.00;115900.28;4981266;28;20023;-84
2023/07/29 04:22:12;;;;;;;9.40;3.92;;;;;;;-142.57;100.00;115900.28;4977638;28;20046;-82
2023/07/29 04:24:38;;;;;;;6.68;3.60;;;;;;;-142.57;100.00;115900.28;4978031;28;20369;-83
2023/07/29 04:27:04;;;;;;;10.93;3.80;;;;;;;-142.57;100.00;115900.28;4977670;28;20077;-85
2023/07/29 04:29:29;;;;;;;9.68;4.30;;;;;;;-142.57;100.00;115900.28;4960090;28;20097;-86
2023/07/29 04:31:55;;;;;;;13.02;4.10;;;;;;;-142.57;100.00;115900.28;4978345;28;20039;-83
2023/07/29 04:34:21;;;;;;;10.50;3.65;;;;;;;-142.57;100.00;115900.28;4977289;28;20042;-84
2023/07/29 04:36:47;;;;;;;8.93;3.78;;;;;;;-142.57;100.00;115900.28;4959699;28;20039;-85
2023/07/29 04:39:14;;;;;;;10.93;3.80;;;;;;;-142.57;100.00;115900.28;4959150;28;20039;-89
2023/07/29 04:41:39;;;;;;;13.07;3.90;;;;;;;-142.57;100.00;115900.28;4981838;28;20035;-84
2023/07/29 04:44:05;;;;;;;10.13;5.03;;;;;;;-142.57;100.00;115900.28;4969144;28;20043;-84
2023/07/29 04:46:32;;;;;;;10.57;4.15;;;;;;;-142.57;100.00;115900.28;4975228;28;20026;-83
2023/07/29 04:48:57;;;;;;;12.10;4.10;;;;;;;-142.57;100.00;115900.28;4977381;28;20042;-86
2023/07/29 04:51:23;;;;;;;8.18;3.83;;;;;;;-142.57;100.00;115900.28;4977457;28;20027;-88
2023/07/29 04:53:49;;;;;;;9.75;4.07;;;;;;;-142.57;100.00;115900.28;4959425;28;20480;-86
2023/07/29 04:56:15;;;;;;;7.30;3.70;;;;;;;-142.57;100.00;115900.28;4959129;28;20031;-85
2023/07/29 04:58:40;;;;;;;12.90;3.78;;;;;;;-142.57;100.00;115900.28;4977026;28;20065;-86
2023/07/29 05:01:06;;;;;;;9.43;4.03;;;;;;;-142.57;100.00;115900.28;4943226;28;20034;-88
2023/07/29 05:03:32;;;;;;;9.95;4.00;;;;;;;-142.57;100.00;115900.28;4977476;28;20113;-88
2023/07/29 05:05:59;;;;;;;10.07;4.45;;;;;;;-142.57;100.00;115900.28;4962974;28;20078;-87
2023/07/29 05:08:26;;;;;;;13.10;4.38;;;;;;;-142.57;100.00;115900.28;4959455;28;20039;-85
2023/07/29 05:10:53;;;;;;;8.25;3.97;;;;;;;-142.57;100.00;115900.28;4964251;28;20038;-83
2023/07/29 05:13:22;;;;;;;11.07;4.05;;;;;;;-142.57;100.00;115900.28;4961346;28;20107;-87
2023/07/29 05:15:48;;;;;;;11.80;4.13;;;;;;;-142.57;100.00;115900.28;4959965;28;20026;-85
2023/07/29 05:18:15;;;;;;;12.95;4.07;;;;;;;-142.57;100.00;115900.28;4975503;28;20495;-85
2023/07/29 05:20:40;;;;;;;9.70;4.13;;;;;;;-142.57;100.00;115900.28;4958697;28;20030;-87
2023/07/29 05:23:06;;;;;;;12.38;3.70;;;;;;;-142.57;99.07;115900.28;4958221;28;20045;-87
2023/07/29 05:25:32;;;;;;;7.30;3.70;;;;;;;-142.57;98.22;115900.28;4957917;28;20031;-84
2023/07/29 05:27:57;;;;;;;10.10;3.72;;;;;;;-142.57;96.95;115900.28;4946485;28;20039;-89
2023/07/29 05:30:23;;;;;;;12.07;4.63;;;;;;;-142.57;96.31;115900.28;4956247;28;20042;-86
2023/07/29 05:32:48;;;;;;;10.40;3.50;;;;;;;-142.57;96.42;115900.28;4939514;28;20039;-84
2023/07/29 05:35:17;;;;;;;11.02;3.70;;;;;;;-142.57;94.18;115900.28;4955704;28;20034;-83
2023/07/29 05:37:42;;;;;;;7.85;3.67;;;;;;;-142.57;92.81;115900.28;4967219;28;20647;-89
2023/07/29 05:40:08;;;;;;;13.75;4.15;;;;;;;-142.57;92.25;115900.28;4975418;28;20038;-90
2023/07/29 05:42:34;;;;;;;16.33;3.65;;;;;;;-142.57;92.35;115900.28;4958425;28;20026;-86
2023/07/29 05:45:00;;;;;;;12.63;4.55;;;;;;;-142.57;92.08;115900.28;4975044;28;20057;-87
2023/07/29 05:47:26;;;;;;;10.77;4.20;;;;;;;-142.57;91.12;115900.28;4975760;28;20038;-88
2023/07/29 05:49:52;;;;;;;10.95;4.18;;;;;;;-142.57;93.19;115900.28;4975595;28;20034;-85
2023/07/29 05:52:18;;;;;;;13.63;4.38;;;;;;;-142.57;95.19;115900.28;4975270;28;20076;-87
2023/07/29 05:54:44;;;;;;;10.18;3.67;;;;;;;-142.57;93.46;115900.28;4959145;28;20037;-84
2023/07/29 05:57:11;;;;;;;13.98;3.92;;;;;;;-142.57;91.47;115900.28;4957729;28;20491;-84
2023/07/29 05:59:37;;;;;;;10.43;3.55;;;;;;;-142.57;91.00;115900.28;4975584;28;20102;-84
2023/07/29 06:02:03;;;;;;;13.60;4.00;;;;;;;-142.57;88.21;115900.28;4976681;28;20046;-87
2023/07/29 06:04:29;;;;;;;11.00;4.10;;;;;;;-142.57;83.95;115900.28;4975446;28;20058;-86
2023/07/29 06:06:55;;;;;;;14.38;3.65;;;;;;;-142.57;83.15;115900.28;4975036;28;20030;-88
2023/07/29 06:09:22;;;;;;;10.25;4.03;;;;;;;-142.57;84.26;115900.28;4958905;28;20136;-90
2023/07/29 06:11:47;;;;;;;9.23;3.80;;;;;;;-142.57;81.26;115900.28;4976319;28;20046;-90
2023/07/29 06:14:13;;;;;;;12.82;4.50;;;;;;;-142.57;78.79;115900.28;4959088;28;20043;-89
2023/07/29 06:16:40;;;;;;;9.27;4.18;;;;;;;-142.57;74.73;115900.28;4975871;28;20027;-87
2023/07/29 06:19:08;;;;;;;8.43;3.72;;;;;;;-142.57;70.10;115900.28;4943087;28;20484;-88
2023/07/29 06:21:36;;;;;;;12.40;3.63;;;;;;;-142.57;73.68;115900.28;4958591;28;20528;-87
2023/07/29 06:24:03;;;;;;;17.98;4.28;;;;;;;-142.57;69.83;115900.28;4960662;28;20031;-91
2023/07/29 06:26:28;;;;;;;7.18;2.63;;;;;;;-142.57;65.73;115900.28;4977795;28;20059;-87
2023/07/29 06:28:54;;;;;;;10.10;3.67;;;;;;;-142.57;61.50;115900.28;4960311;28;20038;-88
2023/07/29 06:31:19;;;;;;;8.95;3.67;;;;;;;-142.57;62.10;115900.28;4977697;28;20035;-89
2023/07/29 06:33:45;;;;;;;7.38;3.00;;;;;;;-142.57;57.53;115900.28;4976792;28;20122;-88
2023/07/29 06:36:11;;;;;;;8.65;3.20;;;;;;;-142.57;58.62;115900.28;4977008;28;20145;-91
2023/07/29 06:38:38;;;;;;;7.40;2.92;;;;;;;-142.57;55.86;115900.28;4976818;28;20035;-88
2023/07/29 06:41:04;;;;;;;9.45;3.50;;;;;;;-142.57;59.02;115900.28;4976984;28;20035;-91
2023/07/29 06:43:29;;;;;;;9.45;3.13;;;;;;;-142.57;59.25;115900.28;4961494;28;20099;-89
2023/07/29 06:45:55;;;;;;;10.95;3.28;;;;;;;-142.57;61.49;115900.28;4976886;28;20138;-91
2023/07/29 06:48:21;;;;;;;9.20;3.53;;;;;;;-142.57;60.82;115900.28;4963239;28;20065;-87
2023/07/29 06:50:46;;;;;;;8.15;3.50;;;;;;;-142.57;60.22;115900.28;4978765;28;20064;-89
2023/07/29 06:53:12;;;;;;;8.88;3.28;;;;;;;-142.57;61.69;115900.28;4980432;28;20097;-90
2023/07/29 06:55:40;;;;;;;8.25;3.00;;;;;;;-142.57;59.75;115900.28;4980694;28;20030;-90
2023/07/29 06:58:06;;;;;;;10.18;3.05;;;;;;;-142.57;55.87;115900.28;4980619;28;20034;-87
2023/07/29 07:00:31;;;;;;;6.85;3.03;;;;;;;-142.57;55.62;115900.28;4996760;28;20041;-89
2023/07/29 07:02:57;;;;;;;7.65;3.47;;;;;;;-142.57;56.24;115900.28;4978393;28;20050;-89
2023/07/29 07:05:22;;;;;;;6.88;2.90;;;;;;;-142.57;56.24;115900.28;4977444;28;20118;-86
2023/07/29 07:07:48;;;;;;;9.65;2.90;;;;;;;-142.57;56.27;115900.28;4983042;28;20045;-84
2023/07/29 07:10:14;;;;;;;6.65;2.75;;;;;;;-142.57;53.44;115900.28;4977810;28;20038;-85
2023/07/29 07:12:40;;;;;;;5.00;2.80;;;;;;;-142.57;53.27;115900.28;4988211;28;20085;-87
2023/07/29 07:15:08;;;;;;;9.40;2.78;;;;;;;-142.57;53.91;115900.28;4983306;28;20110;-86
2023/07/29 07:17:34;;;;;;;6.22;2.80;;;;;;;-142.57;54.96;115900.28;4981308;28;20500;-88
2023/07/29 07:19:59;;;;;;;8.30;3.03;;;;;;;-142.57;53.41;115900.28;4978757;28;20039;-86
2023/07/29 07:22:25;;;;;;;11.07;3.05;;;;;;;-142.57;51.69;115900.28;4978481;28;20103;-86
2023/07/29 07:24:50;;;;;;;7.97;2.92;;;;;;;-142.57;51.87;115900.28;4979499;28;20066;-89
2023/07/29 07:27:16;;;;;;;7.68;2.85;;;;;;;-142.57;52.86;115900.28;4984977;28;20043;-85
2023/07/29 07:29:45;;;;;;;11.10;3.35;;;;;;;-142.57;49.86;115900.28;4993810;28;20037;-85
2023/07/29 07:32:11;;;;;;;8.10;3.00;;;;;;;-142.57;48.64;115900.28;4984252;28;20047;-89
2023/07/29 07:34:37;;;;;;;8.00;3.00;;;;;;;-142.57;49.67;115900.28;5002909;28;20032;-84
2023/07/29 07:37:06;;;;;;;10.55;3.22;;;;;;;-142.57;51.14;115900.28;4992598;28;20049;-83
2023/07/29 07:39:31;;;;;;;8.75;2.80;;;;;;;-142.57;51.46;115900.28;4974856;28;20047;-87
2023/07/29 07:41:57;;;;;;;8.57;2.65;;;;;;;-142.57;50.90;115900.28;4983348;28;20050;-86
2023/07/29 07:44:26;;;;;;;13.48;3.10;;;;;;;-142.57;52.06;115900.28;4982831;28;20062;-86
2023/07/29 07:46:53;;;;;;;8.32;2.97;;;;;;;-142.57;51.28;115900.28;4983840;28;20451;-85
2023/07/29 07:49:18;;;;;;;11.50;2.70;;;;;;;-142.57;47.98;115900.28;4980748;28;20035;-86
2023/07/29 07:51:44;;;;;;;7.60;2.90;;;;;;;-142.57;43.98;115900.28;4982259;28;20066;-89
2023/07/29 07:54:09;;;;;;;7.05;2.65;;;;;;;-142.57;45.67;115900.28;4995875;28;20109;-89
2023/07/29 07:56:35;;;;;;;8.63;2.97;;;;;;;-142.57;47.89;115900.28;4966087;28;20131;-86
2023/07/29 07:59:01;;;;;;;7.38;2.50;;;;;;;-142.57;48.57;115900.28;4993003;28;20105;-83
2023/07/29 08:01:26;;;;;;;10.90;2.75;;;;;;;-142.57;45.09;115900.28;4995220;28;20054;-89
2023/07/29 08:03:54;;;;;;;10.13;3.08;;;;;;;-142.57;47.82;115900.28;4995450;28;20058;-85
2023/07/29 08:06:20;;;;;;;7.40;2.50;;;;;;;-142.57;47.97;115900.28;4992684;28;20030;-85
2023/07/29 08:08:45;;;;;;;7.25;2.75;;;;;;;-142.57;48.05;115900.28;4979762;28;20035;-85
2023/07/29 08:11:11;;;;;;;5.90;2.63;;;;;;;-142.57;47.91;115900.28;4978624;28;20042;-85
2023/07/29 08:13:36;;;;;;;5.97;2.35;;;;;;;-142.57;45.58;115900.28;4960808;28;20076;-86
2023/07/29 08:16:02;;;;;;;9.60;2.50;;;;;;;-142.57;48.36;115900.28;4977493;28;20057;-90
2023/07/29 08:18:27;;;;;;;8.02;3.15;;;;;;;-142.57;48.30;115900.28;4977871;28;20038;-87
2023/07/29 08:20:58;;;;;;;6.03;3.08;;;;;;;-142.57;47.24;115900.28;4961295;28;20042;-88
2023/07/29 08:23:27;;;;;;;8.02;2.75;;;;;;;-142.57;45.79;115900.28;4966982;28;20039;-91
2023/07/29 08:26:01;;;;;;;6.07;2.72;;;;;;;-142.57;48.02;115900.28;4982444;28;20391;-85
2023/07/29 08:28:28;;;;;;;7.50;2.63;;;;;;;-142.57;48.19;115900.28;4946796;28;20050;-88
2023/07/29 08:30:54;;;;;;;16.13;2.60;;;;;;;-142.57;46.53;115900.28;4977051;28;20121;-87
2023/07/29 08:33:19;;;;;;;10.63;2.40;;;;;;;-142.57;46.06;115900.28;4980658;28;20135;-87
2023/07/29 08:35:45;;;;;;;9.63;2.40;;;;;;;-142.57;44.45;115900.28;4984667;28;20090;-86
2023/07/29 08:38:10;;;;;;;6.72;2.63;;;;;;;-142.57;41.99;115900.28;4954378;28;20046;-84
2023/07/29 08:40:42;;;;;;;6.63;2.45;;;;;;;-142.57;43.31;115900.28;4997272;28;20039;-87
2023/07/29 08:43:08;;;;;;;;;;;;;;;-142.57;44.19;115900.28;4998398;28;20070;-87
2023/07/29 08:45:37;;;;;;;7.20;2.72;;;;;;;-142.57;45.04;115900.28;4990810;28;19922;-86
2023/07/29 08:48:08;;;;;;;5.88;2.22;;;;;;;-142.57;43.19;115900.28;4976833;28;20544;-85
2023/07/29 08:50:36;;;;;;;6.37;2.33;;;;;;;-142.57;43.86;115900.28;4978245;28;20114;-86
2023/07/29 08:53:04;;;;;;;5.50;2.30;;;;;;;-142.57;43.58;115900.28;4977558;28;20086;-89
2023/07/29 08:55:31;;;;;;;8.30;2.40;;;;;;;-142.57;42.38;115900.28;4976751;28;20396;-85
2023/07/29 08:57:58;;;;;;;5.20;2.70;;;;;;;-142.57;42.26;115900.28;4976869;28;20031;-88
2023/07/29 09:00:23;;;;;;;8.43;2.10;;;;;;;-142.57;41.77;115900.28;4976975;28;20126;-90
2023/07/29 09:02:49;;;;;;;7.03;2.75;;;;;;;-142.57;41.98;115900.28;4976808;28;20061;-85
2023/07/29 09:05:16;;;;;;;8.68;2.75;;;;;;;-142.57;42.16;115900.28;4976438;28;20034;-88
2023/07/29 09:07:44;;;;;;;7.93;2.15;;;;;;;-142.57;42.66;115900.28;4976442;28;20419;-88
2023/07/29 09:10:12;;;;;;;8.10;2.40;;;;;;;-142.57;41.08;115900.28;4975576;28;20027;-90
2023/07/29 09:12:39;;;;;;;5.93;2.35;;;;;;;-142.57;40.66;115900.28;4976645;28;20066;-89
2023/07/29 09:15:05;;;;;;;9.20;2.83;;;;;;;-142.57;41.09;115900.28;4976892;28;20034;-88
2023/07/29 09:17:34;;;;;;;7.90;3.08;;;;;;;-142.57;40.40;115900.28;4977010;28;20070;-90
2023/07/29 09:20:01;;;;;;;8.88;2.55;;;;;;;-142.57;39.99;115900.28;4976929;28;20038;-88
2023/07/29 09:22:27;;;;;;;7.85;2.42;;;;;;;-142.57;40.58;115900.28;4959288;28;20034;-88
2023/07/29 09:24:56;;;;;;;18.58;3.22;;;;;;;-142.57;39.39;115900.28;4976534;28;20119;-86
2023/07/29 09:27:27;;;;;;;7.82;2.20;;;;;;;-142.57;40.09;115900.28;4976713;28;20074;-89
2023/07/29 09:29:53;;;;;;;7.45;3.17;;;;;;;-142.57;43.00;115900.28;4976849;28;20035;-88
2023/07/29 09:32:21;;;;;;;6.93;2.38;;;;;;;-142.57;43.29;115900.28;4975893;28;20040;-90
2023/07/29 09:34:46;;;;;;;5.70;2.78;;;;;;;-142.57;43.57;115900.28;4976513;28;20027;-89
2023/07/29 09:37:21;;;;;;;6.78;3.13;;;;;;;-142.57;44.78;115900.28;4959075;28;20035;-88
2023/07/29 09:39:48;;;;;;;11.15;3.95;;;;;;;-142.57;44.33;115900.28;4958859;28;20534;-88
2023/07/29 09:42:20;;;;;;;9.20;3.08;;;;;;;-142.57;44.51;115900.28;4977472;28;20035;-88
2023/07/29 09:44:49;;;;;;;9.80;3.00;;;;;;;-142.57;44.15;115900.28;4977801;28;20033;-87
2023/07/29 09:47:24;;;;;;;7.47;2.80;;;;;;;-142.57;44.69;115900.28;4958579;28;20045;-86
2023/07/29 09:49:50;;;;;;;8.65;2.53;;;;;;;-142.57;45.12;115900.28;4975712;28;20073;-85
2023/07/29 09:52:17;;;;;;;11.82;3.25;;;;;;;-142.57;46.11;115900.28;4975892;28;20035;-84
2023/07/29 09:54:44;;;;;;;5.60;2.65;;;;;;;-142.57;47.12;115900.28;4976696;28;20034;-84
2023/07/29 09:57:14;;;;;;;13.80;2.97;;;;;;;-142.57;46.25;115900.28;4958370;28;20046;-87
2023/07/29 09:59:39;;;;;;;9.30;2.97;;;;;;;-142.57;44.71;115900.28;4976583;28;20030;-82
2023/07/29 10:02:13;;;;;;;9.15;3.00;;;;;;;-142.57;43.40;115900.28;4957083;28;20105;-84
2023/07/29 10:04:41;;;;;;;8.10;2.80;;;;;;;-142.57;44.37;115900.28;4974541;28;20049;-82
2023/07/29 10:07:07;;;;;;;8.13;2.67;;;;;;;-142.57;44.33;115900.28;4973799;28;20039;-82
2023/07/29 10:09:34;;;;;;;8.18;2.70;;;;;;;-142.57;44.81;115900.28;4974408;28;20066;-86
2023/07/29 10:12:00;;;;;;;5.72;2.80;;;;;;;-142.57;45.69;115900.28;4974098;28;20030;-84
2023/07/29 10:14:29;;;;;;;10.32;2.47;;;;;;;-142.57;47.33;115900.28;4975491;28;20035;-81
2023/07/29 10:16:56;;;;;;;7.07;2.83;;;;;;;-142.57;47.15;115900.28;4975148;28;20400;-84
2023/07/29 10:19:25;;;;;;;11.10;2.75;;;;;;;-142.57;47.66;115900.28;4974916;28;20042;-84
2023/07/29 10:21:51;;;;;;;7.15;2.72;;;;;;;-142.57;47.43;115900.28;4975703;28;20035;-84
2023/07/29 10:24:23;;;;;;;7.70;2.80;;;;;;;-142.57;45.92;115900.28;4976425;28;20067;-87
2023/07/29 10:26:50;;;;;;;7.10;2.88;;;;;;;-142.57;45.37;115900.28;4977900;28;20043;-84
2023/07/29 10:29:22;;;;;;;10.15;2.70;;;;;;;-142.57;45.22;115900.28;4983762;28;20026;-81
2023/07/29 10:31:53;;;;;;;6.32;2.63;;;;;;;-142.57;43.95;115900.28;4991612;28;20058;-82
2023/07/29 10:34:20;;;;;;;10.80;2.97;;;;;;;-142.57;42.99;115900.28;4963958;28;20115;-81
2023/07/29 10:36:48;;;;;;;7.63;3.00;;;;;;;-142.57;41.31;115900.28;4984380;28;20030;-81
2023/07/29 10:39:14;;;;;;;9.07;3.00;;;;;;;-142.57;43.69;115900.28;4980168;28;20071;-84
2023/07/29 10:41:56;;;;;;;10.43;2.55;;;;;;;-142.57;42.69;115900.28;4978504;28;20109;-85
2023/07/29 10:44:39;;;;;;;7.72;2.67;;;;;;;-142.57;41.42;115900.28;4975554;28;20034;-86
2023/07/29 10:47:16;;;;;;;9.10;2.80;;;;;;;-142.57;41.30;115900.28;4977180;28;20455;-87
2023/07/29 10:49:47;;;;;;;4.97;2.78;;;;;;;-142.57;41.22;115900.28;4974862;28;20031;-82
2023/07/29 10:52:15;;;;;;;7.80;3.00;;;;;;;-142.57;42.67;115900.28;4975170;28;20027;-83
2023/07/29 10:54:48;;;;;;;8.27;2.85;;;;;;;-142.57;41.13;115900.28;4974847;28;20102;-81
2023/07/29 10:57:30;;;;;;;11.68;2.50;;;;;;;-142.57;41.49;115900.28;4974589;28;20039;-85
2023/07/29 10:59:56;;;;;;;9.32;2.40;;;;;;;-142.57;41.52;115900.28;4980024;28;20042;-84
2023/07/29 11:02:30;;;;;;;7.07;2.80;;;;;;;-142.57;41.06;115900.28;4985828;28;20062;-82
2023/07/29 11:04:55;;;;;;;10.52;2.90;;;;;;;-142.57;41.99;115900.28;4980830;28;20432;-85